Time;durP1;ratioP1;P1;durP2;ratioP2;P2;SDS_P1;SDS_P2;PMS_P1;PMS_P2;Temp;Humidity;BMP_temperature;BMP_pressure;BME280_temperature;BME280_humidity;BME280_pressure;Samples;Min_cycle;Max_cycle;Signal;HPM_P1;HPM_P2
2021/06/19 00:02:12;;;;;;;12.07;8.70;;;;;;;21.54;58.59;100955.31;1739749;81;25759;-76
2021/06/19 00:04:39;;;;;;;14.15;10.23;;;;;;;21.47;58.76;100953.30;1731748;81;25851;-76
2021/06/19 00:07:06;;;;;;;11.50;9.75;;;;;;;21.41;58.98;100960.58;1725012;81;25883;-76
2021/06/19 00:09:33;;;;;;;12.85;9.78;;;;;;;21.37;59.11;100953.15;1751249;81;25755;-76
2021/06/19 00:12:01;;;;;;;10.23;9.10;;;;;;;21.33;59.23;100947.38;1727890;81;27415;-76
2021/06/19 00:14:28;;;;;;;11.95;9.45;;;;;;;21.34;59.22;100946.85;1711664;81;25791;-76
2021/06/19 00:16:56;;;;;;;13.40;9.30;;;;;;;21.32;59.36;100948.44;1742404;79;25873;-76
2021/06/19 00:19:23;;;;;;;12.68;9.53;;;;;;;21.27;59.44;100951.10;1757716;79;25885;-76
2021/06/19 00:21:50;;;;;;;15.28;10.10;;;;;;;21.28;59.41;100951.38;1736366;79;25811;-76
2021/06/19 00:24:24;;;;;;;10.65;9.48;;;;;;;21.29;59.40;100950.31;1662622;82;27465;-76
2021/06/19 00:26:51;;;;;;;14.55;10.70;;;;;;;21.30;59.54;100948.39;1747334;81;25939;-76
2021/06/19 00:29:19;;;;;;;12.50;10.25;;;;;;;21.28;59.42;100950.55;1746059;81;25894;-76
2021/06/19 00:31:46;;;;;;;12.03;9.88;;;;;;;21.25;59.42;100953.25;1721863;81;25995;-76
2021/06/19 00:34:13;;;;;;;13.88;10.78;;;;;;;21.26;59.56;100952.16;1733712;81;25840;-76
2021/06/19 00:36:40;;;;;;;13.55;10.28;;;;;;;21.21;59.58;100952.07;1721566;81;27587;-76
2021/06/19 00:39:07;;;;;;;13.88;10.20;;;;;;;21.18;59.68;100951.75;1754111;81;25367;-75
2021/06/19 00:41:35;;;;;;;14.70;11.25;;;;;;;21.12;59.81;100955.47;1737787;79;25871;-76
2021/06/19 00:44:04;;;;;;;16.10;9.93;;;;;;;21.06;59.93;100956.46;1696633;81;25771;-75
2021/06/19 00:46:31;;;;;;;19.17;11.00;;;;;;;21.02;60.04;100960.72;1700321;82;25901;-76
2021/06/19 00:48:58;;;;;;;17.55;10.60;;;;;;;20.98;60.04;100954.92;1754501;79;27635;-76
2021/06/19 00:51:25;;;;;;;17.05;11.80;;;;;;;20.95;60.22;100964.12;1697893;81;25827;-76
2021/06/19 00:53:52;;;;;;;23.47;12.88;;;;;;;20.86;60.30;100962.87;1697170;81;25898;-76
2021/06/19 00:56:19;;;;;;;18.60;11.80;;;;;;;20.81;60.56;100960.08;1720477;81;26214;-76
2021/06/19 00:58:47;;;;;;;17.32;11.38;;;;;;;20.80;60.59;100957.88;1747544;81;25722;-76
2021/06/19 01:01:14;;;;;;;18.35;12.98;;;;;;;20.76;60.70;100958.09;1724417;81;28262;-76
2021/06/19 01:03:42;;;;;;;18.70;12.05;;;;;;;20.72;60.86;100961.02;1698196;81;25545;-76
2021/06/19 01:06:09;;;;;;;21.12;13.53;;;;;;;20.67;61.07;100959.55;1717664;81;25776;-75
2021/06/19 01:08:36;;;;;;;20.17;12.88;;;;;;;20.62;61.07;100954.83;1742788;81;25754;-76
2021/06/19 01:11:04;;;;;;;20.23;13.13;;;;;;;20.61;61.21;100953.19;1718401;81;25753;-76
2021/06/19 01:13:31;;;;;;;21.45;13.55;;;;;;;20.57;61.31;100955.28;1725657;81;27549;-75
2021/06/19 01:15:59;;;;;;;19.52;13.53;;;;;;;20.49;61.30;100958.37;1723466;81;26645;-76
2021/06/19 01:18:26;;;;;;;23.52;14.95;;;;;;;20.41;61.51;100957.41;1756669;79;25815;-76
2021/06/19 01:20:53;;;;;;;22.65;14.25;;;;;;;20.35;61.75;100957.84;1708349;81;25878;-76
2021/06/19 01:23:20;;;;;;;27.87;16.15;;;;;;;20.25;61.90;100963.06;1732210;79;25803;-76
2021/06/19 01:25:47;;;;;;;28.38;15.08;;;;;;;20.20;62.02;100962.98;1717048;81;28142;-76
2021/06/19 01:28:14;;;;;;;23.45;13.98;;;;;;;20.15;62.09;100970.16;1713072;81;25599;-75
2021/06/19 01:30:41;;;;;;;24.87;14.13;;;;;;;20.05;62.36;100965.34;1693199;81;26467;-76
2021/06/19 01:33:08;;;;;;;21.45;13.65;;;;;;;20.01;62.52;100965.53;1720529;81;26566;-76
2021/06/19 01:35:36;;;;;;;16.90;13.05;;;;;;;19.97;62.69;100963.01;1696323;81;26418;-76
2021/06/19 01:38:06;;;;;;;17.82;13.35;;;;;;;19.91;62.75;100969.37;1755748;79;27469;-76
2021/06/19 01:40:33;;;;;;;17.42;13.30;;;;;;;19.84;62.93;100965.45;1739797;81;25873;-76
2021/06/19 01:43:01;;;;;;;17.25;13.00;;;;;;;19.79;63.08;100965.33;1702691;81;26517;-76
2021/06/19 01:45:32;;;;;;;15.08;12.30;;;;;;;19.76;63.23;100967.16;1716132;81;25852;-76
2021/06/19 01:48:02;;;;;;;;;;;;;;;19.67;63.17;100965.05;1741208;81;25804;-76
2021/06/19 01:50:29;;;;;;;17.80;12.25;;;;;;;19.62;63.69;100962.20;1719473;81;27682;-76
2021/06/19 01:52:57;;;;;;;14.73;12.20;;;;;;;19.56;63.54;100967.23;1741084;81;25764;-76
2021/06/19 01:55:24;;;;;;;16.70;12.45;;;;;;;19.56;63.88;100959.91;1717650;81;25976;-76
2021/06/19 01:57:54;;;;;;;13.62;11.65;;;;;;;19.52;63.79;100964.17;1750183;79;26249;-76
2021/06/19 02:00:31;;;;;;;16.57;12.47;;;;;;;19.50;63.98;100966.83;1738925;79;25785;-76
2021/06/19 02:02:58;;;;;;;16.12;11.53;;;;;;;19.45;63.93;100969.41;1692078;82;27477;-76
2021/06/19 02:05:26;;;;;;;15.58;12.00;;;;;;;19.40;64.12;100968.75;1715497;81;25997;-76
2021/06/19 02:08:00;;;;;;;15.15;11.18;;;;;;;19.38;64.24;100968.16;1747384;79;25780;-76
2021/06/19 02:10:30;;;;;;;13.53;11.85;;;;;;;19.38;64.32;100973.59;1708808;79;25793;-76
2021/06/19 02:12:58;;;;;;;13.03;11.57;;;;;;;19.38;64.39;100964.61;1751925;79;25823;-76
2021/06/19 02:15:26;;;;;;;13.98;11.55;;;;;;;19.34;64.37;100971.06;1737579;79;27610;-76
2021/06/19 02:17:56;;;;;;;15.75;11.50;;;;;;;19.32;64.57;100962.81;1748427;79;25269;-76
2021/06/19 02:20:26;;;;;;;13.83;12.03;;;;;;;19.28;64.61;100965.17;1673346;81;25820;-76
2021/06/19 02:22:55;;;;;;;14.23;11.93;;;;;;;19.27;64.57;100966.23;1715760;81;25737;-76
2021/06/19 02:25:26;;;;;;;15.68;11.60;;;;;;;19.22;64.67;100962.05;1700293;81;25810;-76
2021/06/19 02:28:00;;;;;;;14.47;12.30;;;;;;;19.20;64.80;100966.34;1728632;81;28297;-76
2021/06/19 02:30:34;;;;;;;18.27;12.70;;;;;;;19.17;64.81;100965.47;1673394;81;25940;-75
2021/06/19 02:33:03;;;;;;;14.13;11.50;;;;;;;19.16;64.92;100965.15;1711658;81;25799;-76
2021/06/19 02:35:34;;;;;;;13.68;12.05;;;;;;;19.16;65.04;100968.42;1716265;82;25750;-76
2021/06/19 02:38:03;;;;;;;16.35;12.37;;;;;;;19.17;64.99;100967.34;1741317;81;26503;-76
2021/06/19 02:40:30;;;;;;;17.10;12.03;;;;;;;19.20;65.10;100966.89;1668631;81;28420;-76
2021/06/19 02:42:57;;;;;;;21.57;12.63;;;;;;;19.22;65.06;100967.48;1723112;81;25859;-76
2021/06/19 02:45:24;;;;;;;16.65;12.45;;;;;;;19.24;65.08;100972.98;1728234;81;25897;-76
2021/06/19 02:47:55;;;;;;;14.28;12.78;;;;;;;19.22;65.07;100964.77;1718687;82;25818;-76
2021/06/19 02:50:31;;;;;;;15.70;12.80;;;;;;;19.21;65.27;100973.44;1689190;82;25858;-75
2021/06/19 02:53:00;;;;;;;18.42;13.15;;;;;;;19.21;65.33;100969.36;1744304;81;27495;-76
2021/06/19 02:55:34;;;;;;;16.52;13.43;;;;;;;19.24;65.41;100973.50;1724598;81;25775;-76
2021/06/19 02:58:03;;;;;;;14.73;12.93;;;;;;;19.22;65.69;100968.84;1743739;81;25802;-75
2021/06/19 03:00:30;;;;;;;19.40;13.40;;;;;;;19.25;65.96;100976.50;1695108;81;25529;-75
2021/06/19 03:02:59;;;;;;;18.07;14.50;;;;;;;19.30;66.05;100971.73;1737169;81;25918;-76
2021/06/19 03:05:30;;;;;;;21.17;13.85;;;;;;;19.32;66.03;100971.80;1718303;81;27560;-76
2021/06/19 03:07:57;;;;;;;15.08;13.08;;;;;;;19.36;66.11;100969.45;1732153;81;25934;-76
2021/06/19 03:10:28;;;;;;;17.05;13.72;;;;;;;19.39;66.18;100972.55;1699047;81;25817;-76
2021/06/19 03:12:57;;;;;;;15.25;13.62;;;;;;;19.42;66.24;100971.26;1691246;82;26214;-76
2021/06/19 03:15:24;;;;;;;20.52;13.32;;;;;;;19.44;66.27;100969.94;1710286;81;25857;-76
2021/06/19 03:17:52;;;;;;;14.53;12.98;;;;;;;19.48;66.16;100967.59;1739145;81;27493;-75
2021/06/19 03:20:20;;;;;;;15.75;14.03;;;;;;;19.58;66.14;100970.54;1721033;81;25839;-76
2021/06/19 03:23:00;;;;;;;15.68;12.93;;;;;;;19.64;65.98;100967.70;1689756;82;25747;-76
2021/06/19 03:25:31;;;;;;;16.17;12.80;;;;;;;19.73;65.99;100966.81;1740672;81;26039;-76
2021/06/19 03:28:01;;;;;;;16.95;13.75;;;;;;;19.82;65.82;100964.84;1730899;81;25944;-76
2021/06/19 03:30:30;;;;;;;14.60;12.58;;;;;;;19.92;65.83;100969.69;1684416;81;27610;-76
2021/06/19 03:32:57;;;;;;;17.27;12.70;;;;;;;19.99;65.66;100978.55;1742597;81;25824;-76
2021/06/19 03:35:25;;;;;;;18.48;12.93;;;;;;;20.05;65.50;100978.11;1727636;81;26296;-76
2021/06/19 03:37:54;;;;;;;16.65;12.75;;;;;;;20.12;65.43;100980.17;1687157;83;25753;-76
2021/06/19 03:40:22;;;;;;;14.63;13.03;;;;;;;20.19;65.38;100980.88;1744179;81;25815;-76
2021/06/19 03:42:50;;;;;;;17.85;14.03;;;;;;;20.22;65.28;100985.85;1710185;81;27539;-76
2021/06/19 03:45:19;;;;;;;15.15;13.53;;;;;;;20.29;65.36;100983.30;1735074;81;25780;-76
2021/06/19 03:47:47;;;;;;;17.17;13.70;;;;;;;20.34;65.31;100986.64;1715945;81;25887;-75
2021/06/19 03:50:18;;;;;;;16.95;12.53;;;;;;;20.39;65.25;100982.67;1739417;81;25792;-76
2021/06/19 03:52:45;;;;;;;15.05;13.45;;;;;;;20.44;65.23;100988.22;1685588;81;25829;-76
2021/06/19 03:55:14;;;;;;;17.17;14.00;;;;;;;20.42;65.20;100980.28;1742377;81;27544;-76
2021/06/19 03:57:41;;;;;;;17.75;14.15;;;;;;;20.43;65.32;100978.39;1715833;81;25993;-75
2021/06/19 04:00:13;;;;;;;20.12;15.85;;;;;;;20.47;65.31;100980.92;1710579;81;25797;-76
2021/06/19 04:02:43;;;;;;;17.60;14.75;;;;;;;20.55;65.37;100975.91;1669879;82;26060;-76
2021/06/19 04:05:12;;;;;;;21.42;14.80;;;;;;;20.63;65.33;100980.99;1712695;82;25728;-76
2021/06/19 04:07:39;;;;;;;18.75;13.98;;;;;;;20.74;65.28;100987.45;1706456;81;27461;-76
2021/06/19 04:10:09;;;;;;;16.15;14.35;;;;;;;20.82;65.18;100989.78;1711257;81;25889;-76
2021/06/19 04:12:37;;;;;;;15.75;13.62;;;;;;;20.94;65.20;100986.45;1738685;81;25908;-76
2021/06/19 04:15:06;;;;;;;14.60;12.98;;;;;;;21.03;64.99;100989.10;1735507;81;26175;-76
2021/06/19 04:17:34;;;;;;;15.98;13.38;;;;;;;21.15;65.01;100981.67;1714048;81;25737;-76
2021/06/19 04:20:01;;;;;;;19.15;14.05;;;;;;;21.28;64.83;100990.05;1712708;81;27677;-76
2021/06/19 04:22:28;;;;;;;14.87;12.53;;;;;;;21.37;64.66;100983.13;1742019;81;25796;-76
2021/06/19 04:24:55;;;;;;;15.03;12.65;;;;;;;21.44;64.64;100979.17;1744372;81;25835;-76
2021/06/19 04:27:22;;;;;;;15.85;13.18;;;;;;;21.54;64.69;100983.94;1718113;82;25867;-76
2021/06/19 04:29:49;;;;;;;17.05;14.80;;;;;;;21.60;64.33;100978.05;1701019;81;25892;-75
2021/06/19 04:32:18;;;;;;;22.45;13.68;;;;;;;21.65;63.98;100979.47;1740534;81;28222;-76
2021/06/19 04:34:45;;;;;;;14.90;13.18;;;;;;;21.71;64.24;100988.00;1743145;81;25965;-76
2021/06/19 04:37:15;;;;;;;16.27;12.53;;;;;;;21.79;64.10;100974.77;1741227;81;25954;-76
2021/06/19 04:39:57;;;;;;;14.43;12.58;;;;;;;21.87;63.82;100974.92;1712840;82;25803;-76
2021/06/19 04:42:24;;;;;;;14.73;11.83;;;;;;;21.91;63.77;100971.44;1684007;82;26778;-76
2021/06/19 04:47:24;;;;;;;13.65;12.35;;;;;;;22.02;63.57;100977.33;1664394;81;25881;-76
2021/06/19 04:49:50;;;;;;;13.95;12.30;;;;;;;22.03;63.26;100976.23;1718241;82;25803;-76
2021/06/19 04:52:17;;;;;;;17.23;12.10;;;;;;;22.08;63.29;100972.75;1652464;84;25878;-76
2021/06/19 04:54:44;;;;;;;15.10;11.43;;;;;;;22.13;63.41;100970.10;1757696;79;25829;-76
2021/06/19 04:57:11;;;;;;;16.55;12.00;;;;;;;22.24;63.43;100973.22;1714703;79;28349;-76
2021/06/19 04:59:38;;;;;;;16.80;12.58;;;;;;;22.33;63.51;100970.86;1743523;79;25825;-76
2021/06/19 05:02:05;;;;;;;17.17;12.60;;;;;;;22.43;63.67;100971.01;1759695;79;25803;-76
2021/06/19 05:04:32;;;;;;;14.68;13.25;;;;;;;22.49;62.80;100969.44;1755323;79;26531;-76
2021/06/19 05:06:59;;;;;;;13.62;12.20;;;;;;;22.51;62.50;100973.27;1744349;80;25827;-76
2021/06/19 05:09:26;;;;;;;14.00;12.40;;;;;;;22.57;62.32;100970.88;1725680;81;27626;-77
2021/06/19 05:11:53;;;;;;;15.30;11.80;;;;;;;22.65;62.65;100964.45;1711546;82;25873;-76
2021/06/19 05:14:20;;;;;;;12.93;11.63;;;;;;;22.71;62.43;100959.88;1749011;81;25881;-75
2021/06/19 05:16:47;;;;;;;14.00;11.45;;;;;;;22.83;62.27;100966.84;1701325;81;25779;-75
2021/06/19 05:19:17;;;;;;;14.15;12.45;;;;;;;22.93;62.42;100965.56;1744884;81;25895;-76
2021/06/19 05:21:43;;;;;;;13.10;11.15;;;;;;;23.03;61.96;100964.84;1733126;81;27563;-76
2021/06/19 05:24:11;;;;;;;20.20;14.35;;;;;;;23.07;61.24;100963.23;1755639;79;25868;-76
2021/06/19 05:26:40;;;;;;;12.78;11.35;;;;;;;23.13;60.66;100960.83;1706697;81;25831;-76
2021/06/19 05:29:07;;;;;;;17.85;13.53;;;;;;;23.17;61.02;100952.91;1750251;79;26151;-75
2021/06/19 05:31:34;;;;;;;14.33;12.78;;;;;;;23.22;60.47;100958.44;1715281;81;25878;-75
2021/06/19 05:34:01;;;;;;;17.27;13.88;;;;;;;23.27;60.44;100957.09;1757332;81;28315;-75
2021/06/19 05:36:28;;;;;;;15.85;14.20;;;;;;;23.34;60.47;100962.66;1737384;81;25807;-75
2021/06/19 05:38:55;;;;;;;18.42;14.65;;;;;;;23.35;59.97;100962.93;1758247;79;25807;-75
2021/06/19 05:41:23;;;;;;;15.88;13.98;;;;;;;23.44;60.28;100968.20;1696440;81;25817;-75
2021/06/19 05:43:50;;;;;;;16.73;14.70;;;;;;;23.52;60.71;100961.44;1752671;79;25899;-75
2021/06/19 05:46:17;;;;;;;16.12;13.88;;;;;;;23.60;60.47;100960.39;1689693;82;27527;-75
2021/06/19 05:48:44;;;;;;;17.17;14.87;;;;;;;23.65;60.38;100959.05;1737649;81;26493;-75
2021/06/19 05:51:11;;;;;;;16.87;14.98;;;;;;;23.71;60.10;100958.02;1701051;80;25835;-75
2021/06/19 05:53:38;;;;;;;16.07;14.45;;;;;;;23.77;59.45;100956.11;1756541;80;26124;-74
2021/06/19 05:56:05;;;;;;;16.65;15.03;;;;;;;23.87;59.95;100961.63;1698478;81;25761;-75
2021/06/19 05:58:32;;;;;;;16.82;15.13;;;;;;;23.98;59.61;100957.87;1756439;79;27470;-76
2021/06/19 06:00:59;;;;;;;17.30;15.30;;;;;;;24.08;59.66;100955.20;1720988;79;25372;-76
2021/06/19 06:03:26;;;;;;;17.07;15.23;;;;;;;24.20;59.47;100963.20;1754150;79;26527;-76
2021/06/19 06:05:53;;;;;;;17.20;15.28;;;;;;;24.28;59.06;100962.14;1751805;79;25922;-76
2021/06/19 06:08:20;;;;;;;17.98;14.87;;;;;;;24.34;58.65;100963.80;1699601;79;25887;-76
2021/06/19 06:10:47;;;;;;;15.48;13.90;;;;;;;24.41;58.00;100952.06;1757522;80;27511;-76
2021/06/19 06:13:14;;;;;;;16.20;14.50;;;;;;;24.45;57.89;100955.91;1753845;79;26498;-76
2021/06/19 06:15:41;;;;;;;14.60;13.15;;;;;;;24.51;57.89;100958.93;1732022;81;25534;-76
2021/06/19 06:18:08;;;;;;;15.10;13.25;;;;;;;24.60;58.05;100954.28;1745974;81;26102;-76
2021/06/19 06:20:35;;;;;;;15.72;13.93;;;;;;;24.73;58.42;100956.50;1697650;81;25833;-76
2021/06/19 06:23:03;;;;;;;16.37;12.40;;;;;;;24.82;58.65;100948.06;1754359;81;27603;-76
2021/06/19 06:25:30;;;;;;;15.63;13.03;;;;;;;24.89;58.68;100948.06;1740422;81;25916;-76
2021/06/19 06:27:57;;;;;;;14.93;12.98;;;;;;;24.97;58.13;100950.83;1750699;79;26573;-76
2021/06/19 06:30:24;;;;;;;15.98;12.53;;;;;;;25.02;58.19;100943.98;1713686;82;25878;-76
2021/06/19 06:32:51;;;;;;;14.20;12.55;;;;;;;25.08;57.38;100944.26;1762072;79;26537;-76
2021/06/19 06:35:18;;;;;;;14.20;12.13;;;;;;;25.13;57.17;100938.75;1705118;81;27628;-77
2021/06/19 06:37:46;;;;;;;11.93;10.80;;;;;;;25.21;56.91;100936.86;1734751;81;26141;-76
2021/06/19 06:40:14;;;;;;;14.45;11.78;;;;;;;25.28;57.01;100940.95;1699980;80;25835;-76
2021/06/19 06:42:42;;;;;;;12.68;11.00;;;;;;;25.36;57.11;100940.12;1760750;80;26476;-76
2021/06/19 06:45:11;;;;;;;15.60;12.03;;;;;;;25.44;56.91;100939.59;1710970;82;25888;-77
2021/06/19 06:47:39;;;;;;;12.37;11.10;;;;;;;25.53;56.26;100942.89;1681606;81;28046;-76
2021/06/19 06:50:08;;;;;;;14.63;11.85;;;;;;;25.59;57.09;100943.69;1705020;81;26299;-76
2021/06/19 06:52:36;;;;;;;15.35;11.95;;;;;;;25.69;56.64;100951.89;1717480;81;25818;-77
2021/06/19 06:55:07;;;;;;;12.88;10.48;;;;;;;25.71;56.24;100951.89;1718466;82;25785;-77
2021/06/19 06:57:34;;;;;;;12.20;10.95;;;;;;;25.82;56.53;100957.62;1721733;81;25911;-77
2021/06/19 07:00:02;;;;;;;14.47;10.38;;;;;;;25.89;56.58;100959.55;1695212;81;27468;-77
2021/06/19 07:02:31;;;;;;;12.63;8.93;;;;;;;25.97;56.44;100961.70;1749282;79;26539;-76
2021/06/19 07:04:59;;;;;;;12.10;10.55;;;;;;;26.08;56.66;100963.89;1744793;81;25714;-77
2021/06/19 07:07:26;;;;;;;12.58;8.18;;;;;;;26.21;56.05;100957.80;1735565;81;26254;-76
2021/06/19 07:09:53;;;;;;;11.70;8.98;;;;;;;26.31;56.42;100963.78;1733821;81;25781;-77
2021/06/19 07:12:20;;;;;;;13.08;9.35;;;;;;;26.38;56.76;100954.16;1707411;81;28221;-77
2021/06/19 07:14:47;;;;;;;9.63;8.70;;;;;;;26.46;55.30;100963.17;1741342;80;25757;-76
2021/06/19 07:17:14;;;;;;;13.93;8.83;;;;;;;26.52;56.09;100962.03;1718194;81;26478;-77
2021/06/19 07:19:41;;;;;;;10.95;9.80;;;;;;;26.59;55.52;100955.68;1748661;81;26413;-77
2021/06/19 07:22:08;;;;;;;11.08;9.45;;;;;;;26.68;54.71;100955.36;1721895;81;25930;-77
2021/06/19 07:24:36;;;;;;;11.30;9.45;;;;;;;26.73;54.52;100958.09;1701296;81;27631;-76
2021/06/19 07:27:05;;;;;;;14.10;9.38;;;;;;;26.81;54.01;100955.84;1728507;81;25515;-77
2021/06/19 07:29:32;;;;;;;11.33;8.70;;;;;;;26.86;54.73;100951.70;1752310;79;25887;-77
2021/06/19 07:31:59;;;;;;;12.53;9.00;;;;;;;26.90;54.49;100951.39;1678742;81;25785;-77
2021/06/19 07:34:28;;;;;;;7.90;6.92;;;;;;;26.95;54.35;100949.41;1741121;81;26040;-76
2021/06/19 07:36:55;;;;;;;9.13;6.85;;;;;;;27.03;54.38;100951.55;1715318;81;27617;-77
2021/06/19 07:39:22;;;;;;;10.43;7.42;;;;;;;27.14;53.19;100948.98;1739847;81;26536;-77
2021/06/19 07:41:49;;;;;;;16.12;7.70;;;;;;;27.19;53.16;100955.83;1669501;81;25453;-77
2021/06/19 07:44:16;;;;;;;11.60;7.28;;;;;;;27.24;53.25;100959.92;1730828;81;26249;-76
2021/06/19 07:46:46;;;;;;;8.05;6.78;;;;;;;27.30;53.54;100956.02;1743183;81;25821;-77
2021/06/19 07:49:13;;;;;;;7.60;6.90;;;;;;;27.37;53.32;100946.88;1760112;79;27581;-77
2021/06/19 07:51:40;;;;;;;9.43;5.83;;;;;;;27.43;52.66;100948.50;1689213;79;25831;-76
2021/06/19 07:54:07;;;;;;;11.38;6.00;;;;;;;27.49;52.50;100942.37;1757992;79;26202;-76
2021/06/19 07:56:34;;;;;;;8.23;6.60;;;;;;;27.55;52.05;100931.58;1739337;79;26165;-77
2021/06/19 07:59:01;;;;;;;13.38;6.17;;;;;;;27.60;52.53;100935.67;1750907;79;26422;-76
2021/06/19 08:01:29;;;;;;;9.93;6.20;;;;;;;27.64;51.52;100940.02;1710787;80;27511;-77
2021/06/19 08:03:56;;;;;;;9.53;6.15;;;;;;;27.69;51.28;100934.47;1722164;81;25879;-77
2021/06/19 08:06:23;;;;;;;9.55;5.87;;;;;;;27.75;51.99;100939.63;1732934;79;25800;-76
2021/06/19 08:08:54;;;;;;;9.03;5.90;;;;;;;27.82;51.28;100941.46;1752979;80;25793;-76
2021/06/19 08:11:19;;;;;;;10.65;6.17;;;;;;;27.87;51.10;100944.16;1690025;80;25284;-76
2021/06/19 08:13:46;;;;;;;8.10;5.35;;;;;;;27.95;51.54;100942.14;1713561;81;27455;-76
2021/06/19 08:16:16;;;;;;;7.65;6.17;;;;;;;28.05;50.92;100937.94;1745971;79;25870;-76
2021/06/19 08:18:42;;;;;;;4.83;4.30;;;;;;;28.12;50.58;100936.20;1766866;79;25933;-76
2021/06/19 08:21:09;;;;;;;5.20;4.70;;;;;;;28.21;51.08;100934.41;1707089;79;26896;-77
2021/06/19 08:23:36;;;;;;;5.72;4.65;;;;;;;28.31;50.80;100943.12;1718755;79;25734;-77
2021/06/19 08:26:03;;;;;;;6.30;4.55;;;;;;;28.37;50.34;100936.42;1746161;79;27535;-77
2021/06/19 08:28:33;;;;;;;6.78;4.33;;;;;;;28.40;49.95;100941.34;1762217;79;25731;-76
2021/06/19 08:31:00;;;;;;;13.15;5.62;;;;;;;28.47;50.34;100934.34;1687263;81;26334;-77
2021/06/19 08:33:28;;;;;;;11.90;5.78;;;;;;;28.54;48.04;100931.21;1726565;81;25805;-76
2021/06/19 08:35:55;;;;;;;7.35;4.40;;;;;;;28.57;48.27;100936.97;1720925;81;25836;-76
2021/06/19 08:38:22;;;;;;;5.45;4.28;;;;;;;28.64;49.17;100937.43;1756432;81;27634;-77
2021/06/19 08:40:49;;;;;;;5.40;4.28;;;;;;;28.70;48.54;100940.95;1710234;81;25356;-77
2021/06/19 08:43:19;;;;;;;6.47;4.10;;;;;;;28.75;48.13;100929.27;1764113;81;25802;-76
2021/06/19 08:45:48;;;;;;;7.28;4.30;;;;;;;28.82;47.59;100933.03;1741643;81;26257;-77
2021/06/19 08:48:18;;;;;;;6.55;3.80;;;;;;;28.87;47.22;100928.24;1748844;81;25723;-77
2021/06/19 08:50:46;;;;;;;9.25;4.75;;;;;;;28.95;47.78;100924.83;1693164;81;28133;-77
2021/06/19 08:53:13;;;;;;;8.75;4.03;;;;;;;29.03;47.79;100927.44;1693513;81;25765;-77
2021/06/19 08:55:41;;;;;;;9.68;5.33;;;;;;;29.06;46.48;100927.41;1711392;81;25755;-77
2021/06/19 08:58:08;;;;;;;6.50;4.28;;;;;;;29.07;46.70;100924.89;1733590;81;25706;-77
2021/06/19 09:00:35;;;;;;;5.83;3.22;;;;;;;29.07;47.71;100921.58;1700769;81;25911;-76
2021/06/19 09:03:02;;;;;;;6.22;3.42;;;;;;;29.17;46.07;100919.25;1694491;81;27949;-76
2021/06/19 09:05:31;;;;;;;5.95;3.98;;;;;;;29.27;45.64;100924.59;1722649;81;26544;-76
2021/06/19 09:07:59;;;;;;;5.12;3.92;;;;;;;29.32;45.93;100917.61;1734777;81;25825;-76
2021/06/19 09:10:37;;;;;;;5.50;3.10;;;;;;;29.38;46.18;100918.59;1685159;81;26147;-77
2021/06/19 09:13:19;;;;;;;4.37;3.12;;;;;;;29.43;45.52;100919.03;1697221;83;25774;-77
2021/06/19 09:15:58;;;;;;;7.33;3.50;;;;;;;29.51;44.61;100917.77;1717041;82;27566;-77
2021/06/19 09:18:28;;;;;;;4.20;3.20;;;;;;;29.55;45.02;100911.93;1733073;81;25979;-77
2021/06/19 09:21:02;;;;;;;7.87;2.58;;;;;;;29.59;44.64;100909.36;1720669;81;25757;-76
2021/06/19 09:23:36;;;;;;;5.95;2.70;;;;;;;29.66;44.86;100910.58;1721572;81;26140;-77
2021/06/19 09:26:17;;;;;;;4.58;2.42;;;;;;;29.75;44.25;100903.02;1704563;81;25779;-77
2021/06/19 09:29:10;;;;;;;4.60;2.60;;;;;;;29.81;44.05;100902.62;1740916;81;28140;-77
2021/06/19 09:31:51;;;;;;;3.30;2.62;;;;;;;29.90;44.37;100902.72;1706873;81;25953;-76
2021/06/19 09:34:25;;;;;;;3.90;2.92;;;;;;;29.97;44.39;100895.64;1728732;81;25915;-77
2021/06/19 09:36:57;;;;;;;5.60;2.70;;;;;;;30.01;43.84;100892.51;1709005;82;25927;-77
2021/06/19 09:39:31;;;;;;;4.55;2.58;;;;;;;30.07;43.25;100886.33;1735203;81;26029;-77
2021/06/19 09:42:05;;;;;;;7.03;2.40;;;;;;;30.11;43.74;100890.91;1705673;81;27362;-76
2021/06/19 09:44:44;;;;;;;3.58;2.35;;;;;;;30.16;43.84;100884.45;1733905;81;25808;-77
2021/06/19 09:47:16;;;;;;;3.40;2.65;;;;;;;30.25;44.21;100884.80;1701515;82;25790;-77
2021/06/19 09:49:47;;;;;;;10.25;2.90;;;;;;;30.31;43.69;100888.29;1736923;82;25885;-77
2021/06/19 09:52:15;;;;;;;6.40;2.70;;;;;;;30.29;43.39;100883.61;1731800;81;25396;-77
2021/06/19 09:54:48;;;;;;;7.25;2.62;;;;;;;30.29;43.52;100885.81;1745317;81;27626;-76
2021/06/19 09:57:18;;;;;;;5.85;3.12;;;;;;;30.29;41.76;100877.52;1696716;82;26535;-77
2021/06/19 09:59:45;;;;;;;4.65;2.92;;;;;;;30.30;42.82;100877.79;1729771;82;25785;-76
2021/06/19 10:02:30;;;;;;;3.90;3.10;;;;;;;30.30;43.08;100877.79;1698093;82;25582;-77
2021/06/19 10:04:58;;;;;;;5.37;2.52;;;;;;;30.32;42.58;100885.23;1702532;82;26594;-77
2021/06/19 10:07:28;;;;;;;3.90;2.80;;;;;;;30.40;43.11;100887.81;1700566;82;27563;-77
2021/06/19 10:09:57;;;;;;;6.00;2.55;;;;;;;30.49;42.56;100879.04;1728510;82;35408;-77
2021/06/19 10:12:33;;;;;;;3.10;2.60;;;;;;;30.58;42.92;100882.70;1704479;82;25703;-77
2021/06/19 10:15:08;;;;;;;6.90;2.42;;;;;;;30.56;42.90;100877.23;1685885;82;25765;-77
2021/06/19 10:17:38;;;;;;;6.17;2.95;;;;;;;30.61;42.70;100875.70;1704069;82;26487;-77
2021/06/19 10:20:08;;;;;;;3.80;2.92;;;;;;;30.61;42.32;100873.77;1721993;82;32921;-77
2021/06/19 10:22:38;;;;;;;9.58;4.35;;;;;;;30.67;42.19;100860.06;1703280;82;25818;-77
2021/06/19 10:25:13;;;;;;;4.80;2.90;;;;;;;30.71;41.56;100857.50;1726630;82;26574;-77
2021/06/19 10:27:47;;;;;;;7.92;3.67;;;;;;;30.74;41.89;100858.23;1710464;82;25837;-77
2021/06/19 10:30:15;;;;;;;6.20;2.67;;;;;;;30.79;42.74;100857.56;1733241;81;26508;-76
2021/06/19 10:32:50;;;;;;;6.50;3.00;;;;;;;30.87;42.85;100854.63;1682436;81;28226;-76
2021/06/19 10:35:20;;;;;;;8.20;3.45;;;;;;;30.92;43.14;100851.18;1736656;81;25875;-76
2021/06/19 10:37:51;;;;;;;3.47;2.85;;;;;;;31.01;42.30;100846.49;1727315;82;25880;-77
2021/06/19 10:40:27;;;;;;;8.90;6.00;;;;;;;31.05;41.80;100844.72;1703480;82;26028;-76
2021/06/19 10:43:16;;;;;;;9.65;6.80;;;;;;;31.07;41.91;100847.98;1709942;81;25845;-77
2021/06/19 10:45:45;;;;;;;10.70;5.35;;;;;;;31.11;42.26;100843.48;1707990;81;28192;-77
2021/06/19 10:48:16;;;;;;;6.78;5.75;;;;;;;31.21;42.34;100841.81;1717358;82;25940;-77
2021/06/19 10:50:47;;;;;;;8.98;5.75;;;;;;;31.28;42.29;100848.28;1666856;82;26304;-77
2021/06/19 10:53:20;;;;;;;6.90;4.92;;;;;;;31.33;42.29;100834.88;1706943;83;25583;-77
2021/06/19 10:55:55;;;;;;;6.17;5.58;;;;;;;31.37;42.17;100840.02;1715492;81;25902;-77
2021/06/19 10:58:26;;;;;;;4.10;3.70;;;;;;;31.43;41.87;100829.89;1725433;81;27513;-77
2021/06/19 11:01:00;;;;;;;6.50;3.15;;;;;;;31.50;41.35;100830.82;1745308;80;26396;-78
2021/06/19 11:03:49;;;;;;;6.53;4.37;;;;;;;31.52;41.43;100834.08;1697569;82;26683;-77
2021/06/19 11:06:25;;;;;;;7.17;3.05;;;;;;;31.55;41.59;100833.42;1708076;82;25989;-76
2021/06/19 11:09:25;;;;;;;5.65;3.90;;;;;;;31.62;41.84;100828.24;1739953;81;25820;-76
2021/06/19 11:12:01;;;;;;;4.78;4.30;;;;;;;31.67;42.39;100828.90;1688077;82;28393;-75
2021/06/19 11:14:46;;;;;;;7.10;4.80;;;;;;;31.73;41.81;100830.97;1688758;82;26012;-76
2021/06/19 11:17:34;;;;;;;5.03;3.42;;;;;;;31.79;41.60;100824.95;1687918;82;26477;-77
2021/06/19 11:20:06;;;;;;;4.58;3.58;;;;;;;31.85;41.78;100818.69;1734416;81;26086;-76
2021/06/19 11:22:46;;;;;;;8.60;4.22;;;;;;;31.82;41.76;100819.34;1670972;83;25350;-76
2021/06/19 11:25:50;;;;;;;7.47;3.90;;;;;;;31.77;41.41;100814.77;1713848;82;27452;-76
2021/06/19 11:28:26;;;;;;;3.90;2.90;;;;;;;31.84;41.73;100823.99;1714809;81;26574;-76